Terminal Aerodrome Forecast
Issued by NWS

Home | Current Version | Previous Version | Text Only | Print | Product List | Glossary On
Versions: 1 2 3 4 5 6 7 8 9 10 11 12 13 14
361
FTUS45 KABQ 290527
TAFSAF
TAF
KSAF 290527Z 2906/3006 12018G28KT P6SM BKN080
     FM291000 35009KT P6SM VCSH OVC035
     FM291800 26012KT P6SM BKN050
     FM292100 27015G25KT P6SM VCSH OVC050
     FM300200 30009KT P6SM VCSH OVC040=

USA.gov is the U.S. government's official web portal to all federal, state and local government web resources and services.